Time;durP1;ratioP1;P1;durP2;ratioP2;P2;SDS_P1;SDS_P2;PMS_P1;PMS_P2;Temp;Humidity;BMP_temperature;BMP_pressure;BME280_temperature;BME280_humidity;BME280_pressure;Samples;Min_cycle;Max_cycle;Signal;HPM_P1;HPM_P2
2021/08/20 00:02:11;;;;;;;;;;;;;;;16.87;61.30;100672.06;1688492;84;20459;-76
2021/08/20 00:04:37;;;;;;;;;;;;;;;16.85;61.30;100674.73;1682347;84;20635;-76
2021/08/20 00:07:04;;;;;;;;;;;;;;;16.85;61.39;100668.20;1677673;84;20242;-76
2021/08/20 00:09:30;;;;;;;;;;;;;;;16.87;61.41;100672.06;1673008;84;20497;-76
2021/08/20 00:11:56;;;;;;;;;;;;;;;16.90;61.44;100680.23;1688158;84;20114;-76
2021/08/20 00:14:22;;;;;;;;;;;;;;;16.86;61.50;100669.91;1676129;84;20727;-76
2021/08/20 00:16:49;;;;;;;;;;;;;;;16.87;61.55;100671.61;1715570;82;20554;-76
2021/08/20 00:19:15;;;;;;;;;;;;;;;16.88;61.61;100679.84;1717405;82;20122;-76
2021/08/20 00:21:41;;;;;;;;;;;;;;;16.90;61.62;100678.47;1744371;80;20602;-76
2021/08/20 00:24:07;;;;;;;;;;;;;;;16.93;61.71;100669.66;1758836;80;21010;-76
2021/08/20 00:26:34;;;;;;;;;;;;;;;16.93;61.72;100673.58;1763785;80;20131;-76
2021/08/20 00:29:00;;;;;;;;;;;;;;;16.92;61.74;100675.80;1721604;82;20374;-76
2021/08/20 00:31:27;;;;;;;;;;;;;;;16.93;61.84;100676.19;1737279;82;20465;-76
2021/08/20 00:33:53;;;;;;;;;;;;;;;16.96;61.86;100670.84;1752371;80;20597;-76
2021/08/20 00:36:19;;;;;;;;;;;;;;;16.98;61.84;100667.70;1754991;80;20469;-76
2021/08/20 00:38:45;;;;;;;;;;;;;;;16.98;61.89;100668.55;1758217;80;20200;-76
2021/08/20 00:41:12;;;;;;;;;;;;;;;17.00;61.89;100669.80;1752606;80;20554;-76
2021/08/20 00:43:46;;;;;;;;;;;;;;;17.01;61.91;100663.20;1774532;80;20443;-77
2021/08/20 00:46:12;;;;;;;;;;;;;;;17.04;61.95;100668.30;1762039;80;20165;-77
2021/08/20 00:48:39;;;;;;;;;;;;;;;17.03;61.96;100665.30;1762009;80;20478;-77
2021/08/20 00:51:17;;;;;;;;;;;;;;;17.04;62.00;100661.77;1760339;80;20581;-77
2021/08/20 00:53:46;;;;;;;;;;;;;;;17.04;62.08;100666.14;1763625;80;20442;-77
2021/08/20 00:56:12;;;;;;;;;;;;;;;17.03;62.09;100660.53;1746893;80;20179;-77
2021/08/20 00:58:40;;;;;;;;;;;;;;;17.04;62.14;100661.77;1743685;80;20185;-76
2021/08/20 01:01:06;;;;;;;;;;;;;;;17.03;62.18;100666.60;1762878;80;20198;-76
2021/08/20 01:03:32;;;;;;;;;;;;;;;17.01;62.23;100659.28;1732228;80;20189;-76
2021/08/20 01:06:06;;;;;;;;;;;;;;;17.03;62.23;100663.98;1754909;80;20185;-76
2021/08/20 01:08:34;;;;;;;;;;;;;;;17.00;62.34;100656.28;1759020;80;20504;-76
2021/08/20 01:11:01;;;;;;;;;;;;;;;16.98;62.34;100662.02;1765033;80;20846;-76
2021/08/20 01:13:36;;;;;;;;;;;;;;;16.98;62.36;100665.09;1762882;80;20461;-76
2021/08/20 01:16:03;;;;;;;;;;;;;;;16.98;62.47;100665.09;1754053;80;20466;-76
2021/08/20 01:18:30;;;;;;;;;;;;;;;16.98;62.48;100664.64;1755707;80;20177;-76
2021/08/20 01:20:58;;;;;;;;;;;;;;;16.98;62.54;100660.72;1745432;80;20489;-76
2021/08/20 01:23:25;;;;;;;;;;;;;;;16.99;62.54;100664.18;1751290;80;20082;-76
2021/08/20 01:25:51;;;;;;;;;;;;;;;16.98;62.61;100667.70;1702116;83;20526;-76
2021/08/20 01:28:18;;;;;;;;;;;;;;;16.97;62.63;100666.86;1762301;79;405848;-76
2021/08/20 01:30:44;;;;;;;;;;;;;;;16.99;62.64;100669.41;1773281;79;20571;-76
2021/08/20 01:33:10;;;;;;;;;;;;;;;16.98;62.65;100671.17;1750217;80;20082;-76
2021/08/20 01:35:36;;;;;;;;;;;;;;;16.98;62.64;100671.63;1765633;80;20419;-76
2021/08/20 01:38:03;;;;;;;;;;;;;;;17.00;62.68;100667.19;1751972;80;20121;-76
2021/08/20 01:40:29;;;;;;;;;;;;;;;16.99;62.73;100668.95;1754830;80;20116;-76
2021/08/20 01:42:59;;;;;;;;;;;;;;;17.00;62.72;100670.64;1698158;80;20122;-76
2021/08/20 01:45:25;;;;;;;;;;;;;;;17.01;62.80;100670.19;1754699;80;20161;-76
2021/08/20 01:47:51;;;;;;;;;;;;;;;16.98;62.80;100665.94;1760058;80;20565;-76
2021/08/20 01:50:18;;;;;;;;;;;;;;;16.97;62.83;100673.84;1753912;80;20505;-76
2021/08/20 01:52:44;;;;;;;;;;;;;;;16.97;62.96;100669.92;1762452;80;20136;-76
2021/08/20 01:55:11;;;;;;;;;;;;;;;16.94;62.97;100672.20;1765293;80;20123;-76
2021/08/20 01:57:40;;;;;;;;;;;;;;;16.94;63.00;100672.20;1748300;80;20423;-75
2021/08/20 02:00:09;;;;;;;;;;;;;;;16.94;63.13;100668.29;1756176;80;20121;-76
2021/08/20 02:02:35;;;;;;;;;;;;;;;16.94;63.18;100667.44;1759834;80;20106;-76
2021/08/20 02:05:01;;;;;;;;;;;;;;;16.95;63.34;100668.68;1750366;80;20145;-76
2021/08/20 02:07:27;;;;;;;;;;;;;;;16.96;63.26;100667.77;1751748;80;20226;-76
2021/08/20 02:09:53;;;;;;;;;;;;;;;16.99;63.38;100673.33;1777541;80;20156;-76
2021/08/20 02:12:19;;;;;;;;;;;;;;;17.00;63.39;100669.34;1764493;80;20114;-76
2021/08/20 02:14:45;;;;;;;;;;;;;;;17.01;63.32;100668.88;1748973;80;20614;-76
2021/08/20 02:17:11;;;;;;;;;;;;;;;17.01;63.43;100663.66;1759013;80;20168;-76
2021/08/20 02:19:37;;;;;;;;;;;;;;;17.01;63.39;100671.50;1761614;80;20190;-76
2021/08/20 02:22:03;;;;;;;;;;;;;;;17.03;63.51;100665.30;1746309;80;20247;-76
2021/08/20 02:24:30;;;;;;;;;;;;;;;17.05;63.59;100671.30;1746139;80;20183;-76
2021/08/20 02:26:56;;;;;;;;;;;;;;;17.06;63.62;100674.31;1750316;80;20174;-76
2021/08/20 02:29:22;;;;;;;;;;;;;;;17.09;63.65;100676.80;1765000;80;20207;-76
2021/08/20 02:31:48;;;;;;;;;;;;;;;17.11;63.67;100671.50;1749477;80;20234;-76
2021/08/20 02:34:14;;;;;;;;;;;;;;;17.13;63.68;100674.91;1750018;78;20222;-76
2021/08/20 02:36:40;;;;;;;;;;;;;;;17.16;63.74;100675.59;1764488;80;20176;-76
2021/08/20 02:39:06;;;;;;;;;;;;;;;17.18;63.75;100671.61;1763692;80;20726;-76
2021/08/20 02:41:32;;;;;;;;;;;;;;;17.16;63.76;100672.98;1748409;80;20280;-76
2021/08/20 02:43:59;;;;;;;;;;;;;;;17.17;63.83;100672.06;1746675;80;20202;-76
2021/08/20 02:46:25;;;;;;;;;;;;;;;17.18;63.82;100671.16;1746359;80;20315;-76
2021/08/20 02:48:51;;;;;;;;;;;;;;;17.21;63.92;100674.09;1746827;80;20165;-76
2021/08/20 02:51:31;;;;;;;;;;;;;;;17.24;63.85;100671.81;1763853;80;20200;-76
2021/08/20 02:53:58;;;;;;;;;;;;;;;17.25;63.90;100674.36;1760224;80;20193;-76
2021/08/20 02:56:25;;;;;;;;;;;;;;;17.25;63.94;100674.36;1745031;80;20229;-76
2021/08/20 02:58:51;;;;;;;;;;;;;;;17.27;63.98;100675.59;1745599;80;20202;-75
2021/08/20 03:01:17;;;;;;;;;;;;;;;17.27;63.96;100673.84;1746847;80;20191;-75
2021/08/20 03:03:43;;;;;;;;;;;;;;;17.24;63.99;100671.35;1755246;80;20270;-75
2021/08/20 03:06:09;;;;;;;;;;;;;;;17.26;64.00;100673.44;1764439;80;20093;-76
2021/08/20 03:08:37;;;;;;;;;;;;;;;17.27;64.08;100670.38;1757382;80;20124;-77
2021/08/20 03:11:03;;;;;;;;;;;;;;;17.26;64.07;100672.13;1746841;80;20119;-77
2021/08/20 03:13:29;;;;;;;;;;;;;;;17.26;64.07;100676.05;1744377;80;20099;-77
2021/08/20 03:15:55;;;;;;;;;;;;;;;17.24;64.13;100676.58;1763815;80;20153;-77
2021/08/20 03:18:21;;;;;;;;;;;;;;;17.24;64.13;100679.65;1748240;80;20157;-77
2021/08/20 03:20:48;;;;;;;;;;;;;;;17.24;64.18;100676.58;1758638;80;20256;-77
2021/08/20 03:23:15;;;;;;;;;;;;;;;17.25;64.14;100681.34;1751210;80;20092;-76
2021/08/20 03:25:41;;;;;;;;;;;;;;;17.25;64.18;100677.42;1763912;80;20130;-76
2021/08/20 03:28:07;;;;;;;;;;;;;;;17.25;64.23;100682.66;1778386;80;20155;-76
2021/08/20 03:30:34;;;;;;;;;;;;;;;17.24;64.28;100686.19;1756644;80;20123;-76
2021/08/20 03:33:01;;;;;;;;;;;;;;;17.25;64.25;100686.58;1755505;80;20376;-76
2021/08/20 03:35:29;;;;;;;;;;;;;;;17.26;64.32;100692.20;1763677;80;20123;-76
2021/08/20 03:37:58;;;;;;;;;;;;;;;17.27;64.36;100696.51;1754842;80;20177;-76
2021/08/20 03:40:24;;;;;;;;;;;;;;;17.27;64.41;100690.83;1765106;80;20411;-76
2021/08/20 03:42:54;;;;;;;;;;;;;;;17.29;64.38;100693.38;1752655;80;20126;-76
2021/08/20 03:45:21;;;;;;;;;;;;;;;17.28;64.40;100691.22;1754387;80;20126;-76
2021/08/20 03:47:47;;;;;;;;;;;;;;;17.30;64.40;100698.53;1762176;80;20106;-76
2021/08/20 03:50:14;;;;;;;;;;;;;;;17.30;64.45;100698.53;1766811;80;20106;-76
2021/08/20 03:52:40;;;;;;;;;;;;;;;17.32;64.48;100702.39;1751130;80;20457;-77
2021/08/20 03:55:09;;;;;;;;;;;;;;;17.31;64.50;100695.00;1766256;80;20121;-77
2021/08/20 03:57:35;;;;;;;;;;;;;;;17.33;64.50;100696.25;1756698;80;20152;-75
2021/08/20 04:00:02;;;;;;;;;;;;;;;17.34;64.52;100691.41;1756217;80;20161;-76
2021/08/20 04:02:31;;;;;;;;;;;;;;;17.36;64.56;100695.66;1746710;80;20092;-76
2021/08/20 04:04:57;;;;;;;;;;;;;;;17.37;64.60;100694.75;1749752;80;20103;-76
2021/08/20 04:07:23;;;;;;;;;;;;;;;17.37;64.61;100696.05;1761876;80;20171;-76
2021/08/20 04:09:49;;;;;;;;;;;;;;;17.38;64.63;100692.52;1757707;80;20226;-76
2021/08/20 04:12:15;;;;;;;;;;;;;;;17.40;64.68;100695.92;1755301;80;20106;-76
2021/08/20 04:14:41;;;;;;;;;;;;;;;17.44;64.70;100700.56;1754950;80;20423;-76
2021/08/20 04:17:07;;;;;;;;;;;;;;;17.45;64.71;100695.73;1751991;80;20224;-76
2021/08/20 04:19:33;;;;;;;;;;;;;;;17.48;64.69;100702.98;1758528;80;20190;-76
2021/08/20 04:21:59;;;;;;;;;;;;;;;17.51;64.75;100703.30;1766091;80;20167;-76
2021/08/20 04:24:25;;;;;;;;;;;;;;;17.52;64.51;100703.70;1756372;80;20170;-76
2021/08/20 04:26:51;;;;;;;;;;;;;;;17.50;64.74;100705.07;1752274;80;20182;-77
2021/08/20 04:29:17;;;;;;;;;;;;;;;17.52;64.82;100707.16;1754869;80;20782;-77
2021/08/20 04:31:43;;;;;;;;;;;;;;;17.55;64.49;100708.80;1756429;80;20182;-77
2021/08/20 04:34:09;;;;;;;;;;;;;;;17.56;64.75;100710.95;1760738;80;20262;-77
2021/08/20 04:36:35;;;;;;;;;;;;;;;17.56;64.75;100713.56;1751920;80;20208;-77
2021/08/20 04:39:01;;;;;;;;;;;;;;;17.57;64.92;100710.89;1763027;80;20179;-77
2021/08/20 04:41:27;;;;;;;;;;;;;;;17.61;65.05;100706.38;1767738;80;20207;-77
2021/08/20 04:43:57;;;;;;;;;;;;;;;17.66;65.09;100713.14;1771729;80;20200;-77
2021/08/20 04:46:24;;;;;;;;;;;;;;;17.68;65.05;100708.66;1760154;80;20105;-77
2021/08/20 04:48:50;;;;;;;;;;;;;;;17.73;65.09;100716.30;1746796;80;20473;-77
2021/08/20 04:51:16;;;;;;;;;;;;;;;17.75;64.87;100722.31;1762524;80;20196;-77
2021/08/20 04:53:42;;;;;;;;;;;;;;;17.77;65.08;100719.17;1755305;80;20228;-77
2021/08/20 04:56:11;;;;;;;;;;;;;;;17.78;65.12;100715.19;1758711;80;20132;-77
2021/08/20 04:58:37;;;;;;;;;;;;;;;17.83;65.03;100714.98;1745011;80;20197;-76
2021/08/20 05:01:03;;;;;;;;;;;;;;;17.88;65.16;100718.70;1746792;81;20139;-76
2021/08/20 05:03:33;;;;;;;;;;;;;;;17.90;65.15;100720.34;1723962;82;20082;-76
2021/08/20 05:05:59;;;;;;;;;;;;;;;17.92;64.92;100718.50;1746790;82;20107;-76
2021/08/20 05:08:25;;;;;;;;;;;;;;;17.94;65.19;100727.12;1756125;80;20105;-76
2021/08/20 05:10:52;;;;;;;;;;;;;;;17.99;65.18;100729.55;1747118;82;20127;-76
2021/08/20 05:13:18;;;;;;;;;;;;;;;18.04;65.24;100727.57;1747145;82;20095;-76
2021/08/20 05:15:44;;;;;;;;;;;;;;;18.07;65.21;100729.59;1746891;80;20236;-76
2021/08/20 05:18:10;;;;;;;;;;;;;;;18.11;65.17;100731.61;1769511;79;20126;-76
2021/08/20 05:20:36;;;;;;;;;;;;;;;18.15;65.12;100730.55;1738971;81;20201;-76
2021/08/20 05:23:02;;;;;;;;;;;;;;;18.15;65.17;100742.33;1746509;80;20201;-76
2021/08/20 05:25:34;;;;;;;;;;;;;;;18.18;65.29;100744.81;1740782;80;20106;-76
2021/08/20 05:28:00;;;;;;;;;;;;;;;18.18;65.35;100739.58;1738326;82;20083;-76
2021/08/20 05:30:26;;;;;;;;;;;;;;;18.18;65.18;100745.66;1740268;81;20224;-76
2021/08/20 05:32:52;;;;;;;;;;;;;;;18.17;65.33;100741.80;1745871;80;20462;-76
2021/08/20 05:35:18;;;;;;;;;;;;;;;18.18;65.43;100748.28;1743819;80;20138;-76
2021/08/20 05:37:44;;;;;;;;;;;;;;;18.22;65.51;100744.18;1742420;81;20213;-76
2021/08/20 05:40:11;;;;;;;;;;;;;;;18.25;65.55;100739.66;1747054;82;20131;-76
2021/08/20 05:42:37;;;;;;;;;;;;;;;18.31;65.58;100740.69;1755358;80;20397;-76
2021/08/20 05:45:11;;;;;;;;;;;;;;;18.37;65.59;100740.41;1739608;80;20095;-76
2021/08/20 05:47:38;;;;;;;;;;;;;;;18.41;65.53;100742.42;1733106;82;20103;-76
2021/08/20 05:50:05;;;;;;;;;;;;;;;18.45;65.50;100743.98;1740678;80;20090;-76
2021/08/20 05:52:38;;;;;;;;;;;;;;;18.48;65.47;100747.30;1705087;83;20096;-76
2021/08/20 05:55:08;;;;;;;;;;;;;;;18.53;65.54;100747.94;1743660;80;20118;-76
2021/08/20 05:57:34;;;;;;;;;;;;;;;18.58;65.46;100744.26;1731625;82;20125;-76
2021/08/20 06:00:00;;;;;;;;;;;;;;;18.61;65.41;100750.23;1745111;80;20090;-76
2021/08/20 06:02:26;;;;;;;;;;;;;;;18.64;65.21;100747.47;1756803;80;20687;-76
2021/08/20 06:04:52;;;;;;;;;;;;;;;18.71;65.42;100751.96;1778682;80;20221;-76
2021/08/20 06:07:19;;;;;;;;;;;;;;;18.84;65.35;100752.58;1743757;80;20133;-76
2021/08/20 06:09:45;;;;;;;;;;;;;;;18.95;65.48;100755.16;1744398;80;20102;-76
2021/08/20 06:12:11;;;;;;;;;;;;;;;19.06;65.43;100756.80;1737745;81;20737;-76
2021/08/20 06:14:37;;;;;;;;;;;;;;;19.15;65.35;100756.34;1746431;82;20248;-76
2021/08/20 06:17:03;;;;;;;;;;;;;;;19.22;65.40;100748.56;1745588;80;20197;-76
2021/08/20 06:19:29;;;;;;;;;;;;;;;19.32;65.31;100753.70;1738525;81;20198;-76
2021/08/20 06:21:56;;;;;;;;;;;;;;;19.36;65.17;100753.94;1749218;80;20199;-76
2021/08/20 06:24:22;;;;;;;;;;;;;;;19.39;65.31;100752.94;1741911;81;20816;-76
2021/08/20 06:26:48;;;;;;;;;;;;;;;19.50;65.33;100752.78;1748601;81;20259;-76
2021/08/20 06:29:16;;;;;;;;;;;;;;;19.59;65.23;100755.44;1737612;82;20178;-76
2021/08/20 06:31:42;;;;;;;;;;;;;;;19.63;65.10;100756.13;1736750;80;20134;-76
2021/08/20 06:34:08;;;;;;;;;;;;;;;19.66;65.12;100762.07;1737052;81;20133;-76
2021/08/20 06:36:34;;;;;;;;;;;;;;;19.68;65.07;100761.98;1751732;81;20118;-76
2021/08/20 06:39:00;;;;;;;;;;;;;;;19.70;65.04;100766.23;1744864;81;20088;-76
2021/08/20 06:41:26;;;;;;;;;;;;;;;19.69;64.97;100767.16;1740917;80;20099;-76
2021/08/20 06:43:52;;;;;;;;;;;;;;;19.73;64.99;100764.77;1753198;80;20739;-76
2021/08/20 06:46:18;;;;;;;;;;;;;;;19.72;64.98;100774.88;1735439;81;20120;-76
2021/08/20 06:48:44;;;;;;;;;;;;;;;19.74;64.96;100774.33;1754319;81;20726;-76
2021/08/20 06:51:14;;;;;;;;;;;;;;;19.74;64.91;100770.39;1759369;81;20151;-76
2021/08/20 06:53:40;;;;;;;;;;;;;;;19.78;64.94;100769.28;1749630;80;20138;-76
2021/08/20 06:56:06;;;;;;;;;;;;;;;19.77;64.93;100772.83;1750752;81;20095;-76
2021/08/20 06:58:33;;;;;;;;;;;;;;;19.75;64.87;100774.72;1750475;81;20122;-76
2021/08/20 07:00:59;;;;;;;;;;;;;;;19.79;65.04;100776.69;1749325;80;20143;-76
2021/08/20 07:03:25;;;;;;;;;;;;;;;19.82;64.89;100775.22;1750791;80;20095;-76
2021/08/20 07:05:51;;;;;;;;;;;;;;;19.86;64.95;100777.22;1744535;80;20151;-76
2021/08/20 07:08:17;;;;;;;;;;;;;;;19.89;64.97;100774.44;1748920;81;20092;-76
2021/08/20 07:10:43;;;;;;;;;;;;;;;19.93;65.02;100778.14;1752980;80;20165;-76
2021/08/20 07:13:09;;;;;;;;;;;;;;;20.01;64.96;100783.84;1746460;81;20141;-76
2021/08/20 07:15:35;;;;;;;;;;;;;;;20.04;64.85;100782.83;1750117;80;20208;-76
2021/08/20 07:18:01;;;;;;;;;;;;;;;20.04;64.80;100781.05;1750203;80;20284;-76
2021/08/20 07:20:30;;;;;;;;;;;;;;;20.06;64.84;100783.59;1752229;81;20150;-76
2021/08/20 07:22:57;;;;;;;;;;;;;;;20.08;64.89;100785.67;1754145;80;20130;-76
2021/08/20 07:25:23;;;;;;;;;;;;;;;20.09;64.84;100782.97;1750324;81;20090;-76
2021/08/20 07:27:52;;;;;;;;;;;;;;;20.08;64.77;100782.59;1750065;80;20487;-76
2021/08/20 07:30:18;;;;;;;;;;;;;;;20.10;64.76;100783.36;1728328;81;20406;-76
2021/08/20 07:32:45;;;;;;;;;;;;;;;20.09;64.78;100781.66;1752528;81;20165;-77
2021/08/20 07:35:11;;;;;;;;;;;;;;;20.11;64.81;100778.48;1750887;80;20142;-77
2021/08/20 07:37:38;;;;;;;;;;;;;;;20.11;64.71;100775.86;1756154;81;20121;-77
2021/08/20 07:40:06;;;;;;;;;;;;;;;20.07;64.71;100776.95;1740575;80;20146;-77
2021/08/20 07:42:32;;;;;;;;;;;;;;;20.00;64.74;100783.45;1738636;81;20126;-77
2021/08/20 07:44:58;;;;;;;;;;;;;;;19.91;64.71;100786.55;1724781;80;20192;-77
2021/08/20 07:47:24;;;;;;;;;;;;;;;19.86;64.78;100778.53;1717895;81;20102;-77
2021/08/20 07:49:50;;;;;;;;;;;;;;;19.86;64.89;100781.16;1757283;80;20119;-77
2021/08/20 07:52:16;;;;;;;;;;;;;;;19.87;64.79;100778.45;1730447;81;20104;-77
2021/08/20 07:54:42;;;;;;;;;;;;;;;19.87;64.74;100778.45;1757455;81;20088;-77
2021/08/20 07:57:09;;;;;;;;;;;;;;;19.82;64.74;100781.78;1759045;81;20116;-77
2021/08/20 07:59:48;;;;;;;;;;;;;;;19.80;64.75;100787.11;1747873;79;20099;-76
2021/08/20 08:02:15;;;;;;;;;;;;;;;19.79;64.86;100781.94;1744505;81;20803;-76
2021/08/20 08:04:42;;;;;;;;;;;;;;;19.81;64.89;100785.33;1739928;80;20519;-76
2021/08/20 08:07:08;;;;;;;;;;;;;;;19.83;64.86;100789.58;1749605;81;20130;-76
2021/08/20 08:09:34;;;;;;;;;;;;;;;19.82;64.87;100793.13;1736475;81;20799;-76
2021/08/20 08:12:00;;;;;;;;;;;;;;;19.84;64.93;100793.89;1721352;82;20205;-77
2021/08/20 08:14:29;;;;;;;;;;;;;;;19.86;64.82;100797.75;1739263;81;20097;-77
2021/08/20 08:16:55;;;;;;;;;;;;;;;19.88;64.89;100797.67;1736907;80;20126;-77
2021/08/20 08:19:21;;;;;;;;;;;;;;;19.87;64.77;100800.77;1741090;81;20230;-77
2021/08/20 08:21:49;;;;;;;;;;;;;;;19.85;64.72;100802.61;1748002;80;20103;-77
2021/08/20 08:24:15;;;;;;;;;;;;;;;19.82;64.80;100801.00;1746377;80;20670;-77
2021/08/20 08:26:41;;;;;;;;;;;;;;;19.84;64.87;100802.23;1754602;80;20141;-77
2021/08/20 08:29:07;;;;;;;;;;;;;;;19.83;64.88;100805.32;1746801;80;20167;-77
2021/08/20 08:31:33;;;;;;;;;;;;;;;19.82;64.77;100799.69;1758139;80;20130;-77
2021/08/20 08:33:58;;;;;;;;;;;;;;;19.76;64.76;100802.63;1756883;80;20768;-77
2021/08/20 08:36:24;;;;;;;;;;;;;;;19.73;64.90;100799.34;1750338;80;20197;-77
2021/08/20 08:38:50;;;;;;;;;;;;;;;19.72;64.90;100806.36;1757359;80;20206;-77
2021/08/20 08:41:18;;;;;;;;;;;;;;;19.72;64.95;100816.86;1763273;80;20742;-77
2021/08/20 08:43:53;;;;;;;;;;;;;;;19.71;64.92;100815.63;1763432;80;20100;-77
2021/08/20 08:46:21;;;;;;;;;;;;;;;19.68;64.93;100823.19;1744216;80;20756;-77
2021/08/20 08:48:47;;;;;;;;;;;;;;;19.67;64.94;100825.42;1753891;80;20101;-77
2021/08/20 08:51:18;;;;;;;;;;;;;;;19.65;64.83;100824.65;1754220;80;20122;-77
2021/08/20 08:53:44;;;;;;;;;;;;;;;19.59;64.93;100823.64;1748118;80;20118;-77
2021/08/20 08:56:10;;;;;;;;;;;;;;;19.57;65.01;100831.20;1754448;80;20165;-77
2021/08/20 08:58:37;;;;;;;;;;;;;;;19.52;64.95;100834.05;1770835;80;20132;-76
2021/08/20 09:01:25;;;;;;;;;;;;;;;19.50;65.10;100837.18;1766734;80;20140;-76
2021/08/20 09:04:11;;;;;;;;;;;;;;;19.49;65.17;100836.80;1730656;80;20093;-76
2021/08/20 09:06:39;;;;;;;;;;;;;;;19.49;65.13;100837.64;1741764;80;20140;-77
2021/08/20 09:09:07;;;;;;;;;;;;;;;19.44;65.10;100834.86;1741662;80;20097;-77
2021/08/20 09:11:33;;;;;;;;;;;;;;;19.43;65.34;100825.30;1737175;80;20088;-77
2021/08/20 09:13:59;;;;;;;;;;;;;;;19.48;65.47;100826.77;1751311;80;20559;-77
2021/08/20 09:16:44;;;;;;;;;;;;;;;19.63;65.75;100824.34;1743202;80;20133;-77
2021/08/20 09:19:18;;;;;;;;;;;;;;;19.76;65.77;100824.92;1742096;80;20136;-77
2021/08/20 09:21:52;;;;;;;;;;;;;;;19.92;65.77;100830.70;1739707;80;20103;-77
2021/08/20 09:24:35;;;;;;;;;;;;;;;20.06;65.75;100830.38;1755378;78;20102;-77
2021/08/20 09:27:18;;;;;;;;;;;;;;;20.20;65.67;100832.30;1747281;80;20115;-77
2021/08/20 09:30:11;;;;;;;;;;;;;;;20.17;65.63;100839.02;1759825;79;20143;-77
2021/08/20 09:32:45;;;;;;;;;;;;;;;20.20;65.64;100840.17;1747575;80;20102;-77
2021/08/20 09:35:11;;;;;;;;;;;;;;;20.23;65.48;100844.42;1705748;83;20134;-77
2021/08/20 09:37:39;;;;;;;;;;;;;;;20.20;65.45;100844.11;1701805;83;20092;-77
2021/08/20 09:40:12;;;;;;;;;;;;;;;20.19;65.50;100842.41;1705319;83;20146;-77
2021/08/20 09:42:37;;;;;;;;;;;;;;;20.19;65.40;100843.73;1755955;80;20083;-77
2021/08/20 09:45:16;;;;;;;;;;;;;;;20.16;65.57;100846.05;1746496;80;20383;-77
2021/08/20 09:47:46;;;;;;;;;;;;;;;20.18;65.54;100843.34;1740012;80;20100;-77
2021/08/20 09:50:12;;;;;;;;;;;;;;;20.22;65.66;100835.69;1726171;80;20125;-77
2021/08/20 09:52:38;;;;;;;;;;;;;;;20.29;65.60;100834.88;1755809;80;20129;-77
2021/08/20 09:55:05;;;;;;;;;;;;;;;20.31;65.68;100837.80;1742277;80;20736;-77
2021/08/20 09:57:32;;;;;;;;;;;;;;;20.44;65.79;100836.72;1738260;80;20262;-76
2021/08/20 09:59:58;;;;;;;;;;;;;;;20.56;65.61;100828.65;1742925;80;20437;-76
2021/08/20 10:02:40;;;;;;;;;;;;;;;20.70;65.66;100834.01;1719400;80;20139;-76
2021/08/20 10:05:06;;;;;;;;;;;;;;;20.84;65.46;100835.39;1743232;80;20707;-76
2021/08/20 10:07:41;;;;;;;;;;;;;;;20.98;65.72;100840.73;1748136;80;20157;-76
2021/08/20 10:10:08;;;;;;;;;;;;;;;21.12;65.50;100840.81;1755842;80;20110;-77
2021/08/20 10:12:37;;;;;;;;;;;;;;;21.19;65.25;100839.16;1727548;80;20127;-77
2021/08/20 10:15:05;;;;;;;;;;;;;;;21.19;65.26;100839.16;1758476;80;20096;-77
2021/08/20 10:17:32;;;;;;;;;;;;;;;21.20;65.35;100831.17;1746612;80;20170;-77
2021/08/20 10:19:59;;;;;;;;;;;;;;;21.32;65.63;100834.43;1752352;80;20088;-77
2021/08/20 10:22:27;;;;;;;;;;;;;;;21.53;65.58;100824.45;1741695;80;20398;-77
2021/08/20 10:24:54;;;;;;;;;;;;;;;21.68;65.38;100831.92;1759517;80;20395;-77
2021/08/20 10:27:21;;;;;;;;;;;;;;;21.76;65.10;100829.70;1725898;82;20099;-77
2021/08/20 10:29:57;;;;;;;;;;;;;;;21.78;65.05;100828.67;1722540;82;20412;-77
2021/08/20 10:32:23;;;;;;;;;;;;;;;21.91;65.17;100821.33;1713598;82;20379;-77
2021/08/20 10:34:49;;;;;;;;;;;;;;;22.00;65.10;100811.56;1723624;82;20790;-77
2021/08/20 10:37:25;;;;;;;;;;;;;;;22.04;64.96;100809.16;1718343;82;20672;-77
2021/08/20 10:39:53;;;;;;;;;;;;;;;22.14;65.01;100815.56;1713453;82;20098;-77
2021/08/20 10:42:22;;;;;;;;;;;;;;;22.21;64.83;100807.66;1725146;82;20754;-77
2021/08/20 10:45:07;;;;;;;;;;;;;;;22.29;64.91;100810.67;1723567;82;20445;-77
2021/08/20 10:47:42;;;;;;;;;;;;;;;22.46;64.80;100803.86;1721267;82;20423;-77
2021/08/20 10:50:19;;;;;;;;;;;;;;;22.65;64.68;100809.30;1732815;80;20408;-77
2021/08/20 10:52:49;;;;;;;;;;;;;;;22.79;64.48;100804.03;1723419;82;20411;-77
2021/08/20 10:55:27;;;;;;;;;;;;;;;22.83;64.33;100809.48;1714485;82;20672;-77
2021/08/20 10:57:58;;;;;;;;;;;;;;;22.86;64.25;100814.56;1715168;82;20436;-76
2021/08/20 11:00:26;;;;;;;;;;;;;;;22.78;64.04;100807.58;1704357;82;20400;-76
2021/08/20 11:02:57;;;;;;;;;;;;;;;22.61;64.00;100808.64;1701546;82;20115;-76
2021/08/20 11:05:40;;;;;;;;;;;;;;;22.53;63.97;100806.95;1710500;82;20407;-76
2021/08/20 11:08:29;;;;;;;;;;;;;;;22.47;63.92;100811.30;1727931;82;20666;-76
2021/08/20 11:10:59;;;;;;;;;;;;;;;22.40;63.98;100818.73;1723031;82;20385;-76
2021/08/20 11:13:26;;;;;;;;;;;;;;;22.28;63.87;100816.88;1716776;82;20422;-76
2021/08/20 11:15:53;;;;;;;;;;;;;;;22.18;63.91;100818.85;1725563;82;20425;-76
2021/08/20 11:18:39;;;;;;;;;;;;;;;22.11;63.84;100820.55;1717713;82;20430;-76
2021/08/20 11:21:08;;;;;;;;;;;;;;;22.11;63.85;100821.02;1721571;82;20401;-76
2021/08/20 11:23:34;;;;;;;;;;;;;;;21.99;63.55;100821.25;1716233;82;20141;-76
2021/08/20 11:26:01;;;;;;;;;;;;;;;21.95;63.79;100812.30;1733868;80;20104;-76
2021/08/20 11:28:31;;;;;;;;;;;;;;;21.93;63.76;100816.81;1701146;82;20104;-76
2021/08/20 11:31:03;;;;;;;;;;;;;;;21.83;63.72;100814.39;1725257;82;20091;-76
2021/08/20 11:33:33;;;;;;;;;;;;;;;21.77;63.72;100830.08;1728464;81;20383;-76
2021/08/20 11:36:01;;;;;;;;;;;;;;;21.66;63.75;100824.59;1710403;81;20083;-76
2021/08/20 11:38:42;;;;;;;;;;;;;;;21.63;63.95;100822.14;1725022;82;20117;-78
2021/08/20 11:41:19;;;;;;;;;;;;;;;21.71;64.10;100826.02;1718479;82;20565;-78
2021/08/20 11:43:49;;;;;;;;;;;;;;;21.77;64.25;100821.70;1731994;82;20444;-78
2021/08/20 11:46:15;;;;;;;;;;;;;;;21.90;64.15;100820.95;1727612;82;20853;-78
2021/08/20 11:48:51;;;;;;;;;;;;;;;22.02;64.10;100826.36;1738449;82;20551;-77
2021/08/20 11:51:40;;;;;;;;;;;;;;;22.15;63.89;100826.94;1714923;81;20447;-77
2021/08/20 11:54:11;;;;;;;;;;;;;;;22.30;64.00;100833.91;1720745;82;20439;-77
2021/08/20 11:56:39;;;;;;;;;;;;;;;22.28;63.64;100834.01;1721355;82;20842;-77
2021/08/20 11:59:10;;;;;;;;;;;;;;;22.25;63.67;100834.66;1715697;82;20459;-76
2021/08/20 12:01:38;;;;;;;;;;;;;;;22.29;63.83;100834.38;1715872;81;20527;-76
2021/08/20 12:04:06;;;;;;;;;;;;;;;22.29;63.74;100824.31;1709552;82;20095;-76
2021/08/20 12:06:33;;;;;;;;;;;;;;;22.29;63.75;100823.84;1711234;82;20440;-76
2021/08/20 12:09:09;;;;;;;;;;;;;;;22.33;63.80;100817.92;1709923;82;20124;-76
2021/08/20 12:11:35;;;;;;;;;;;;;;;22.36;63.67;100819.86;1709257;82;20582;-76
2021/08/20 12:14:01;;;;;;;;;;;;;;;22.46;63.52;100817.51;1705096;82;20507;-76
2021/08/20 12:16:34;;;;;;;;;;;;;;;22.46;63.30;100819.67;1737277;82;20429;-76
2021/08/20 12:19:24;;;;;;;;;;;;;;;22.50;63.19;100814.20;1722713;81;20517;-76
2021/08/20 12:21:53;;;;;;;;;;;;;;;22.53;63.22;100817.50;1712878;81;20103;-76
2021/08/20 12:24:36;;;;;;;;;;;;;;;22.62;63.15;100820.03;1710231;82;20149;-76
2021/08/20 12:27:20;;;;;;;;;;;;;;;22.60;62.90;100821.45;1735788;82;20133;-77
2021/08/20 12:30:02;;;;;;;;;;;;;;;22.63;62.88;100821.73;1731322;81;20391;-77
2021/08/20 12:32:34;;;;;;;;;;;;;;;22.63;62.79;100822.58;1739309;82;20123;-77
2021/08/20 12:35:01;;;;;;;;;;;;;;;22.58;62.64;100818.06;1737222;82;20097;-77
2021/08/20 12:37:28;;;;;;;;;;;;;;;22.58;62.68;100822.48;1738028;81;20090;-78
2021/08/20 12:40:10;;;;;;;;;;;;;;;22.58;62.65;100821.17;1738052;82;20110;-78
2021/08/20 12:42:47;;;;;;;;;;;;;;;22.51;62.56;100815.43;1747497;82;20100;-78